Brumley, MO

9:34 PM CST on February 08, 2016 (GMT -0600)
Fine Memorial | | Change Station
CLOSE
Current Station
Airport
Location: Kaiser,
Elevation: 869 ft
Nearby Weather Stations

Elev 869 ft 38.10 °N, 92.55 °W | Updated 19 minutes ago

Overcast
Overcast
27 °F
Feels Like 19 °F
N
7
Wind Variable Wind from WNW
Gusts 17 mph

Today
High -- | Low -- °F
--% Chance of Precip.
Yesterday
High -- | Low -- °F
Precip. -- in
Pressure 30.02 in
Visibility 10.0 miles
Clouds Few 3800 ft
Overcast 4500 ft
Windchill 19 °F
Dew Point 12 °F
Humidity 55%
Rainfall 0.00 in
Snow Depth Not available.
7:08 AM 5:40 PM
New Moon, 0% visible
METAR KAIZ 090315Z AUTO 29006G15KT 10SM FEW038 OVC045 M03/M11 A3002 RMK AO1
Pressure 30.02 in
Visibility 10.0 miles
Clouds Few 3800 ft
Overcast 4500 ft
Windchill 19 °F
Dew Point 12 °F
Humidity 55%
Rainfall 0.00 in
Snow Depth Not available.
7:08 AM 5:40 PM
New Moon, 0% visible
METAR KAIZ 090315Z AUTO 29006G15KT 10SM FEW038 OVC045 M03/M11 A3002 RMK AO1

10-Day Weather Forecast

Almanac

Astronomy

Feb. 08, 2016 Rise Set
Actual Time
Civil Twilight
Nautical Twilight
Astronomical Twilight
Moon
Length of Visible Light
Length of Day
Tomorrow will be .
, % of the Moon is Illuminated

Today's Extremes

State Highs State Lows

Community

WunderPhotos

Upload Photos

1,891,527 photos uploaded!

WunderBlog® & News

Nearby

Air Quality

  Air Quality AQ Index Pollutant
Not available.

Snow Depth

Station Depth Elevation

Earthquake Activity

City Distance Mag. Time & Date
Minimum magnitude displayed is 2.5.

Coastal Water Temperatures

Place Temperature

Stations

Nearby Weather Stations

Station Location Temp. Windchill Dew Point Humidity Wind Precip. Elev Updated Type
                   

Watches & Warnings

There are currently no watches in effect.